Latest Weather Observations for Esperance Harbour

IDW60801

Issued at 4:32 pm WST Saturday 30 May 2015 (issued every 30 minutes, with the page automatically refreshed every 10 minutes)

About weather observations | Map of weather stations | Latest weather observations for WA | Other Formats
Station Details ID: 109504 Name: ESPERANCE NTC AWS Lat: -33.87 Lon: 121.90 Height: 0.0 m
Data from the previous 72 hours. | See also: Recent months for locations in Western Australia
Date/Time
WST
Temp
°C
App
Temp
°C
Dew
Point
Rel
Hum
%
Delta-T
°C
Wind Press
QNH
hPa
Press
MSL
hPa
Rain
since 9 am
mm
Dir
 
Spd
km/h
Gust
km/h
Spd
kts
Gust
kts
30/04:30pm 15.6 - - - - - - - - - 1025.4 1025.3 -
30/04:00pm 15.8 - - - - - - - - - 1025.3 1025.2 -
30/03:30pm 16.2 - - - - - - - - - 1025.4 1025.3 -
30/03:00pm 16.4 - - - - - - - - - 1025.4 1025.3 -
30/02:30pm 16.6 - - - - - - - - - 1025.3 1025.2 -
30/02:00pm 16.2 - - - - - - - - - 1025.4 1025.3 -
30/01:30pm 16.3 - - - - - - - - - 1025.5 1025.4 -
30/01:00pm 16.4 - - - - - - - - - 1025.6 1025.5 -
30/12:30pm 17.0 - - - - - - - - - 1025.7 1025.6 -
30/12:00pm 16.5 - - - - - - - - - 1025.9 1025.8 -
30/11:30am 15.8 - - - - - - - - - 1026.4 1026.3 -
30/11:00am 15.6 - - - - - - - - - 1026.9 1026.8 -
30/10:30am 15.1 - - - - - - - - - 1027.1 1027.0 -
30/10:00am 14.7 - - - - - - - - - 1027.3 1027.2 -
30/09:30am 12.6 - - - - - - - - - 1027.6 1027.5 -
30/09:00am 11.2 - - - - - - - - - 1027.7 1027.6 -
30/08:30am 9.8 - - - - - - - - - 1027.5 1027.4 -
30/08:00am 8.8 - - - - - - - - - 1027.5 1027.4 -
30/07:30am 7.9 - - - - - - - - - 1027.6 1027.5 -
30/07:00am 7.7 - - - - - - - - - 1027.4 1027.3 -
30/06:30am 8.2 - - - - - - - - - 1027.2 1027.1 -
30/06:00am 8.8 - - - - - - - - - 1027.2 1027.1 -
30/05:30am 8.9 - - - - - - - - - 1027.1 1027.0 -
30/05:00am 9.0 - - - - - - - - - 1026.8 1026.7 -
30/04:30am 9.8 - - - - - - - - - 1026.7 1026.6 -
30/04:00am 10.4 - - - - - - - - - 1026.5 1026.4 -
30/03:30am 10.2 - - - - - - - - - 1026.3 1026.2 -
30/03:00am 10.6 - - - - - - - - - 1026.5 1026.4 -
30/02:30am 10.8 - - - - - - - - - 1026.6 1026.5 -
30/02:00am 11.0 - - - - - - - - - 1026.7 1026.6 -
30/01:30am 10.4 - - - - - - - - - 1026.7 1026.6 -
30/01:00am 10.7 - - - - - - - - - 1026.7 1026.6 -
30/12:30am 10.9 - - - - - - - - - 1026.8 1026.7 -
30/12:00am 11.5 - - - - - - - - - 1026.9 1026.8 -
 
Date/Time
WST
Temp
°C
App
Temp
°C
Dew
Point
Rel
Hum
%
Delta-T
°C
Wind Press
QNH
hPa
Press
MSL
hPa
Rain
since 9 am
mm
Dir
 
Spd
km/h
Gust
km/h
Spd
kts
Gust
kts
29/11:30pm 11.8 - - - - - - - - - 1027.1 1027.0 -
29/11:00pm 12.1 - - - - - - - - - 1027.2 1027.1 -
29/10:30pm 12.4 - - - - - - - - - 1027.3 1027.2 -
29/10:00pm 12.5 - - - - - - - - - 1027.3 1027.2 -
29/09:30pm 12.6 - - - - - - - - - 1027.6 1027.5 -
29/09:00pm 13.1 - - - - - - - - - 1027.4 1027.3 -
29/08:30pm 13.2 - - - - - - - - - 1027.7 1027.6 -
29/08:00pm 13.8 - - - - - - - - - 1027.6 1027.5 -
29/07:30pm 14.7 - - - - - - - - - 1027.3 1027.2 -
29/07:00pm 14.8 - - - - - - - - - 1026.9 1026.8 -
29/06:30pm 15.2 - - - - - - - - - 1026.7 1026.6 -
29/06:00pm 15.2 - - - - - - - - - 1026.3 1026.2 -
29/05:30pm 14.7 - - - - - - - - - 1026.2 1026.1 -
29/05:00pm 14.7 - - - - - - - - - 1026.0 1025.9 -
29/04:30pm 14.9 - - - - - - - - - 1025.8 1025.7 -
29/04:00pm 15.5 - - - - - - - - - 1025.5 1025.4 -
29/03:30pm 15.6 - - - - - - - - - 1025.5 1025.4 -
29/03:00pm 15.2 - - - - - - - - - 1025.4 1025.3 -
29/02:30pm 15.5 - - - - - - - - - 1025.3 1025.2 -
29/02:00pm 15.4 - - - - - - - - - 1025.4 1025.3 -
29/01:30pm 15.1 - - - - - - - - - 1025.6 1025.5 -
29/01:00pm 14.4 - - - - - - - - - 1025.7 1025.6 -
29/12:30pm 14.9 - - - - - - - - - 1025.9 1025.8 -
29/12:00pm 14.6 - - - - - - - - - 1026.3 1026.2 -
29/11:30am 14.9 - - - - - - - - - 1026.6 1026.5 -
29/11:00am 14.5 - - - - - - - - - 1026.8 1026.7 -
29/10:30am 14.1 - - - - - - - - - 1027.3 1027.2 -
29/10:00am 13.6 - - - - - - - - - 1027.4 1027.3 -
29/09:30am 12.4 - - - - - - - - - 1027.4 1027.3 -
29/09:00am 11.7 - - - - - - - - - 1027.4 1027.3 -
29/08:30am 10.9 - - - - - - - - - 1027.3 1027.2 -
29/08:00am 9.7 - - - - - - - - - 1027.1 1027.0 -
29/07:30am 8.7 - - - - - - - - - 1026.9 1026.8 -
29/07:00am 9.2 - - - - - - - - - 1026.9 1026.8 -
29/06:30am 9.1 - - - - - - - - - 1026.8 1026.7 -
29/06:00am 8.9 - - - - - - - - - 1026.6 1026.5 -
29/05:30am 9.0 - - - - - - - - - 1026.5 1026.4 -
29/05:00am 8.7 - - - - - - - - - 1026.3 1026.2 -
29/04:30am 8.6 - - - - - - - - - 1026.3 1026.2 -
29/04:00am 8.5 - - - - - - - - - 1026.2 1026.1 -
29/03:30am 8.8 - - - - - - - - - 1026.0 1025.9 -
29/03:00am 9.2 - - - - - - - - - 1025.8 1025.7 -
29/02:30am 9.7 - - - - - - - - - 1025.9 1025.8 -
29/02:00am 10.4 - - - - - - - - - 1025.8 1025.7 -
29/01:30am 11.5 - - - - - - - - - 1025.7 1025.6 -
29/01:00am 11.0 - - - - - - - - - 1025.8 1025.7 -
29/12:30am 11.2 - - - - - - - - - 1025.9 1025.8 -
29/12:00am 11.4 - - - - - - - - - 1026.0 1025.9 -
 
Date/Time
WST
Temp
°C
App
Temp
°C
Dew
Point
Rel
Hum
%
Delta-T
°C
Wind Press
QNH
hPa
Press
MSL
hPa
Rain
since 9 am
mm
Dir
 
Spd
km/h
Gust
km/h
Spd
kts
Gust
kts
28/11:30pm 11.6 - - - - - - - - - 1025.9 1025.8 -
28/11:00pm 11.8 - - - - - - - - - 1026.0 1025.9 -
28/10:30pm 12.6 - - - - - - - - - 1026.1 1026.0 -
28/10:00pm 12.3 - - - - - - - - - 1026.1 1026.0 -
28/09:30pm 12.2 - - - - - - - - - 1026.1 1026.0 -
28/09:00pm 12.7 - - - - - - - - - 1026.2 1026.1 -
28/08:30pm 13.7 - - - - - - - - - 1026.0 1025.9 -
28/08:00pm 14.3 - - - - - - - - - 1025.6 1025.5 -
28/07:30pm 14.3 - - - - - - - - - 1025.4 1025.3 -
28/07:00pm 14.5 - - - - - - - - - 1025.0 1024.9 -
28/06:30pm 14.5 - - - - - - - - - 1024.8 1024.7 -
28/06:00pm 14.6 - - - - - - - - - 1024.5 1024.4 -
28/05:30pm 14.4 - - - - - - - - - 1024.4 1024.3 -
28/05:00pm 14.7 - - - - - - - - - 1023.9 1023.8 -
28/04:30pm 14.7 - - - - - - - - - 1023.8 1023.7 -
28/04:00pm 14.9 - - - - - - - - - 1023.5 1023.4 -
28/03:30pm 15.1 - - - - - - - - - 1023.4 1023.3 -
28/03:00pm 14.7 - - - - - - - - - 1023.3 1023.2 -
28/02:30pm 15.3 - - - - - - - - - 1023.1 1023.0 -
28/02:00pm 15.4 - - - - - - - - - 1022.9 1022.8 -
28/01:30pm 14.4 - - - - - - - - - 1022.9 1022.8 -
28/01:00pm 14.1 - - - - - - - - - 1023.1 1023.0 -
28/12:30pm 13.7 - - - - - - - - - 1023.4 1023.3 -
28/12:00pm 13.6 - - - - - - - - - 1023.5 1023.4 -
28/11:30am 13.2 - - - - - - - - - 1023.6 1023.5 -
28/11:00am 13.3 - - - - - - - - - 1023.8 1023.7 -
28/10:30am 13.1 - - - - - - - - - 1023.9 1023.8 -
28/10:00am 13.1 - - - - - - - - - 1023.8 1023.7 -
28/09:30am 12.8 - - - - - - - - - 1023.9 1023.8 -
28/09:00am 12.9 - - - - - - - - - 1023.5 1023.4 -
28/08:30am 12.4 - - - - - - - - - 1023.2 1023.1 -
28/08:00am 12.1 - - - - - - - - - 1022.9 1022.8 -
28/07:30am 11.7 - - - - - - - - - 1022.7 1022.6 -
28/07:00am 11.7 - - - - - - - - - 1022.4 1022.3 -
28/06:30am 11.9 - - - - - - - - - 1022.2 1022.1 -
28/06:00am 11.4 - - - - - - - - - 1021.8 1021.7 -
28/05:30am 11.3 - - - - - - - - - 1021.5 1021.4 -
28/05:00am 11.1 - - - - - - - - - 1021.2 1021.1 -
28/04:30am 11.1 - - - - - - - - - 1021.1 1021.0 -
28/04:00am 11.1 - - - - - - - - - 1020.7 1020.7 -
28/03:30am 10.9 - - - - - - - - - 1020.5 1020.5 -
28/03:00am 10.8 - - - - - - - - - 1020.5 1020.5 -
28/02:30am 10.7 - - - - - - - - - 1020.6 1020.6 -
28/02:00am 11.3 - - - - - - - - - 1020.6 1020.6 -
28/01:30am 12.2 - - - - - - - - - 1020.6 1020.6 -
28/01:00am 12.2 - - - - - - - - - 1020.3 1020.3 -
28/12:30am 12.1 - - - - - - - - - 1020.4 1020.4 -
28/12:00am 12.4 - - - - - - - - - 1020.4 1020.4 -
 
Date/Time
WST
Temp
°C
App
Temp
°C
Dew
Point
Rel
Hum
%
Delta-T
°C
Wind Press
QNH
hPa
Press
MSL
hPa
Rain
since 9 am
mm
Dir
 
Spd
km/h
Gust
km/h
Spd
kts
Gust
kts
27/11:30pm 12.6 - - - - - - - - - 1020.3 1020.3 -
27/11:00pm 12.6 - - - - - - - - - 1020.4 1020.4 -
27/10:30pm 12.7 - - - - - - - - - 1020.3 1020.3 -
27/10:00pm 13.0 - - - - - - - - - 1020.2 1020.2 -
27/09:30pm 12.7 - - - - - - - - - 1020.3 1020.3 -
27/09:00pm 12.1 - - - - - - - - - 1020.4 1020.4 -
27/08:30pm 12.0 - - - - - - - - - 1020.2 1020.2 -
27/08:00pm 11.6 - - - - - - - - - 1020.1 1020.1 -
27/07:30pm 11.8 - - - - - - - - - 1020.1 1020.1 -
27/07:00pm 12.3 - - - - - - - - - 1020.1 1020.1 -
27/06:30pm 12.5 - - - - - - - - - 1019.8 1019.8 -
27/06:00pm 13.2 - - - - - - - - - 1019.6 1019.6 -
27/05:30pm 13.7 - - - - - - - - - 1019.6 1019.6 -
27/05:00pm 14.5 - - - - - - - - - 1019.3 1019.3 -

Other Formats:

Comma delimited format used in spreadsheet applications
http://www.bom.gov.au/fwo/IDW60801/IDW60801.95648.axf

JavaScript Object Notation format (JSON) in row-major order
http://www.bom.gov.au/fwo/IDW60801/IDW60801.95648.json